sensor_id;sensor_type;location;lat;lon;timestamp;pressure;altitude;pressure_sealevel;temperature;humidity
31771;BME280;18343;50.152;8.182;2024-01-11T00:01:02;98601.72;;;-5.73;94.53
31771;BME280;18343;50.152;8.182;2024-01-11T00:03:47;98601.03;;;-5.77;95.34
31771;BME280;18343;50.152;8.182;2024-01-11T00:06:33;98600.13;;;-5.76;96.00
31771;BME280;18343;50.152;8.182;2024-01-11T00:09:19;98595.72;;;-5.75;95.71
31771;BME280;18343;50.152;8.182;2024-01-11T00:12:06;98599.09;;;-5.73;96.15
31771;BME280;18343;50.152;8.182;2024-01-11T00:14:52;98604.34;;;-5.73;96.37
31771;BME280;18343;50.152;8.182;2024-01-11T00:17:42;98590.50;;;-5.75;96.11
31771;BME280;18343;50.152;8.182;2024-01-11T00:20:27;98597.50;;;-5.76;96.78
31771;BME280;18343;50.152;8.182;2024-01-11T00:23:13;98597.50;;;-5.76;96.60
31771;BME280;18343;50.152;8.182;2024-01-11T00:25:58;98595.72;;;-5.75;97.04
31771;BME280;18343;50.152;8.182;2024-01-11T00:28:46;98596.66;;;-5.76;96.63
31771;BME280;18343;50.152;8.182;2024-01-11T00:31:33;98605.53;;;-5.81;96.16
31771;BME280;18343;50.152;8.182;2024-01-11T00:34:19;98610.09;;;-5.86;96.15
31771;BME280;18343;50.152;8.182;2024-01-11T00:37:04;98624.06;;;-5.85;96.41
31771;BME280;18343;50.152;8.182;2024-01-11T00:39:50;98610.97;;;-5.85;97.26
31771;BME280;18343;50.152;8.182;2024-01-11T00:42:35;98617.06;;;-5.85;97.17
31771;BME280;18343;50.152;8.182;2024-01-11T00:45:21;98617.91;;;-5.84;97.16
31771;BME280;18343;50.152;8.182;2024-01-11T00:48:07;98614.38;;;-5.83;97.39
31771;BME280;18343;50.152;8.182;2024-01-11T00:51:01;98623.16;;;-5.84;97.17
31771;BME280;18343;50.152;8.182;2024-01-11T00:53:47;98619.16;;;-5.93;96.64
31771;BME280;18343;50.152;8.182;2024-01-11T00:56:32;98616.53;;;-5.93;97.11
31771;BME280;18343;50.152;8.182;2024-01-11T00:59:18;98623.59;;;-5.95;97.42
31771;BME280;18343;50.152;8.182;2024-01-11T01:02:05;98622.75;;;-5.95;97.72
31771;BME280;18343;50.152;8.182;2024-01-11T01:04:54;98620.97;;;-5.95;97.54
31771;BME280;18343;50.152;8.182;2024-01-11T01:07:40;98622.81;;;-5.97;97.72
31771;BME280;18343;50.152;8.182;2024-01-11T01:10:30;98621.09;;;-5.98;97.41
31771;BME280;18343;50.152;8.182;2024-01-11T01:13:16;98619.41;;;-5.99;97.65
31771;BME280;18343;50.152;8.182;2024-01-11T01:16:02;98623.94;;;-6.02;97.04
31771;BME280;18343;50.152;8.182;2024-01-11T01:18:48;98621.50;;;-6.07;97.97
31771;BME280;18343;50.152;8.182;2024-01-11T01:21:35;98611.81;;;-6.05;98.48
31771;BME280;18343;50.152;8.182;2024-01-11T01:24:20;98618.81;;;-6.05;98.64
31771;BME280;18343;50.152;8.182;2024-01-11T01:27:05;98621.38;;;-6.04;98.85
31771;BME280;18343;50.152;8.182;2024-01-11T01:29:50;98622.28;;;-6.05;98.47
31771;BME280;18343;50.152;8.182;2024-01-11T01:32:35;98621.44;;;-6.05;98.83
31771;BME280;18343;50.152;8.182;2024-01-11T01:35:24;98624.13;;;-6.07;98.24
31771;BME280;18343;50.152;8.182;2024-01-11T01:38:16;98620.88;;;-6.13;97.79
31771;BME280;18343;50.152;8.182;2024-01-11T01:41:05;98629.63;;;-6.15;98.16
31771;BME280;18343;50.152;8.182;2024-01-11T01:43:50;98625.38;;;-6.17;98.33
31771;BME280;18343;50.152;8.182;2024-01-11T01:46:42;98622.75;;;-6.17;98.30
31771;BME280;18343;50.152;8.182;2024-01-11T01:49:28;98624.53;;;-6.18;98.90
31771;BME280;18343;50.152;8.182;2024-01-11T01:52:14;98626.16;;;-6.15;98.94
31771;BME280;18343;50.152;8.182;2024-01-11T01:55:03;98626.16;;;-6.15;99.00
31771;BME280;18343;50.152;8.182;2024-01-11T01:58:04;98635.91;;;-6.19;98.54
31771;BME280;18343;50.152;8.182;2024-01-11T02:00:51;98629.81;;;-6.19;98.87
31771;BME280;18343;50.152;8.182;2024-01-11T02:03:40;98636.81;;;-6.20;99.48
31771;BME280;18343;50.152;8.182;2024-01-11T02:06:26;98639.38;;;-6.18;99.54
31771;BME280;18343;50.152;8.182;2024-01-11T02:09:16;98635.06;;;-6.19;99.33
31771;BME280;18343;50.152;8.182;2024-01-11T02:12:04;98637.72;;;-6.21;99.23
31771;BME280;18343;50.152;8.182;2024-01-11T02:14:53;98633.34;;;-6.20;99.73
31771;BME280;18343;50.152;8.182;2024-01-11T02:17:43;98650.13;;;-6.26;98.78
31771;BME280;18343;50.152;8.182;2024-01-11T02:20:28;98653.72;;;-6.28;99.51
31771;BME280;18343;50.152;8.182;2024-01-11T02:23:19;98659.03;;;-6.30;99.62
31771;BME280;18343;50.152;8.182;2024-01-11T02:26:07;98656.53;;;-6.33;99.33
31771;BME280;18343;50.152;8.182;2024-01-11T02:28:52;98653.41;;;-6.42;98.84
31771;BME280;18343;50.152;8.182;2024-01-11T02:31:41;98649.88;;;-6.41;99.43
31771;BME280;18343;50.152;8.182;2024-01-11T02:34:26;98649.81;;;-6.40;100.00
31771;BME280;18343;50.152;8.182;2024-01-11T02:37:12;98649.88;;;-6.41;99.78
31771;BME280;18343;50.152;8.182;2024-01-11T02:40:08;98644.72;;;-6.43;99.89
31771;BME280;18343;50.152;8.182;2024-01-11T02:42:57;98652.56;;;-6.43;100.00
31771;BME280;18343;50.152;8.182;2024-01-11T02:45:42;98657.16;;;-6.50;99.10
31771;BME280;18343;50.152;8.182;2024-01-11T02:48:28;98653.69;;;-6.50;100.00
31771;BME280;18343;50.152;8.182;2024-01-11T02:51:17;98650.22;;;-6.51;100.00
31771;BME280;18343;50.152;8.182;2024-01-11T02:54:04;98636.22;;;-6.50;100.00
31771;BME280;18343;50.152;8.182;2024-01-11T02:56:50;98647.56;;;-6.49;100.00
31771;BME280;18343;50.152;8.182;2024-01-11T02:59:37;98645.78;;;-6.49;100.00
31771;BME280;18343;50.152;8.182;2024-01-11T03:02:23;98652.03;;;-6.53;99.44
31771;BME280;18343;50.152;8.182;2024-01-11T03:05:09;98649.53;;;-6.56;100.00
31771;BME280;18343;50.152;8.182;2024-01-11T03:07:58;98647.91;;;-6.58;99.97
31771;BME280;18343;50.152;8.182;2024-01-11T03:10:44;98638.53;;;-6.64;100.00
31771;BME280;18343;50.152;8.182;2024-01-11T03:13:31;98627.22;;;-6.64;100.00
31771;BME280;18343;50.152;8.182;2024-01-11T03:16:18;98627.16;;;-6.63;100.00
31771;BME280;18343;50.152;8.182;2024-01-11T03:19:03;98628.13;;;-6.65;100.00
31771;BME280;18343;50.152;8.182;2024-01-11T03:21:48;98625.44;;;-6.64;100.00
31771;BME280;18343;50.152;8.182;2024-01-11T03:24:33;98625.44;;;-6.64;100.00
31771;BME280;18343;50.152;8.182;2024-01-11T03:27:18;98620.38;;;-6.68;100.00
31771;BME280;18343;50.152;8.182;2024-01-11T03:30:03;98608.28;;;-6.71;100.00
31771;BME280;18343;50.152;8.182;2024-01-11T03:32:51;98609.97;;;-6.70;100.00
31771;BME280;18343;50.152;8.182;2024-01-11T03:35:36;98623.13;;;-6.71;100.00
31771;BME280;18343;50.152;8.182;2024-01-11T03:38:21;98624.06;;;-6.74;100.00
31771;BME280;18343;50.152;8.182;2024-01-11T03:41:17;98620.66;;;-6.76;100.00
31771;BME280;18343;50.152;8.182;2024-01-11T03:44:02;98612.81;;;-6.76;100.00
31771;BME280;18343;50.152;8.182;2024-01-11T03:46:47;98615.53;;;-6.79;100.00
31771;BME280;18343;50.152;8.182;2024-01-11T03:49:33;98612.03;;;-6.78;100.00
31771;BME280;18343;50.152;8.182;2024-01-11T03:52:18;98614.53;;;-6.75;100.00
31771;BME280;18343;50.152;8.182;2024-01-11T03:55:12;98610.16;;;-6.74;100.00
31771;BME280;18343;50.152;8.182;2024-01-11T03:58:17;98617.19;;;-6.76;100.00
31771;BME280;18343;50.152;8.182;2024-01-11T04:01:02;98618.16;;;-6.79;100.00
31771;BME280;18343;50.152;8.182;2024-01-11T04:03:51;98625.16;;;-6.79;100.00
31771;BME280;18343;50.152;8.182;2024-01-11T04:06:37;98622.59;;;-6.81;100.00
31771;BME280;18343;50.152;8.182;2024-01-11T04:09:23;98626.25;;;-6.85;100.00
31771;BME280;18343;50.152;8.182;2024-01-11T04:12:11;98621.78;;;-6.83;100.00
31771;BME280;18343;50.152;8.182;2024-01-11T04:14:56;98622.66;;;-6.83;100.00
31771;BME280;18343;50.152;8.182;2024-01-11T04:17:42;98619.97;;;-6.81;100.00
31771;BME280;18343;50.152;8.182;2024-01-11T04:20:27;98617.31;;;-6.79;100.00
31771;BME280;18343;50.152;8.182;2024-01-11T04:23:17;98619.88;;;-6.78;100.00
31771;BME280;18343;50.152;8.182;2024-01-11T04:26:02;98629.47;;;-6.78;100.00
31771;BME280;18343;50.152;8.182;2024-01-11T04:28:52;98629.53;;;-6.80;100.00
31771;BME280;18343;50.152;8.182;2024-01-11T04:31:36;98640.84;;;-6.79;100.00
31771;BME280;18343;50.152;8.182;2024-01-11T04:34:23;98627.81;;;-6.81;100.00
31771;BME280;18343;50.152;8.182;2024-01-11T04:37:09;98625.22;;;-6.81;100.00
31771;BME280;18343;50.152;8.182;2024-01-11T04:39:56;98624.41;;;-6.83;100.00
31771;BME280;18343;50.152;8.182;2024-01-11T04:42:46;98621.03;;;-6.85;100.00
31771;BME280;18343;50.152;8.182;2024-01-11T04:45:33;98620.19;;;-6.86;100.00
31771;BME280;18343;50.152;8.182;2024-01-11T04:48:19;98621.94;;;-6.86;100.00
31771;BME280;18343;50.152;8.182;2024-01-11T04:51:09;98624.03;;;-6.96;100.00
31771;BME280;18343;50.152;8.182;2024-01-11T04:53:54;98635.09;;;-7.12;100.00
31771;BME280;18343;50.152;8.182;2024-01-11T04:56:42;98637.91;;;-7.19;100.00
31771;BME280;18343;50.152;8.182;2024-01-11T04:59:30;98636.31;;;-7.23;100.00
31771;BME280;18343;50.152;8.182;2024-01-11T05:02:20;98637.19;;;-7.22;100.00
31771;BME280;18343;50.152;8.182;2024-01-11T05:05:16;98640.47;;;-7.17;100.00
31771;BME280;18343;50.152;8.182;2024-01-11T05:08:03;98636.97;;;-7.16;100.00
31771;BME280;18343;50.152;8.182;2024-01-11T05:10:58;98638.56;;;-7.12;100.00
31771;BME280;18343;50.152;8.182;2024-01-11T05:13:45;98636.63;;;-7.07;100.00
31771;BME280;18343;50.152;8.182;2024-01-11T05:16:31;98637.25;;;-7.00;100.00
31771;BME280;18343;50.152;8.182;2024-01-11T05:19:17;98637.19;;;-6.99;100.00
31771;BME280;18343;50.152;8.182;2024-01-11T05:22:03;98645.91;;;-6.98;100.00
31771;BME280;18343;50.152;8.182;2024-01-11T05:24:49;98638.81;;;-6.95;100.00
31771;BME280;18343;50.152;8.182;2024-01-11T05:27:34;98643.13;;;-6.94;100.00
31771;BME280;18343;50.152;8.182;2024-01-11T05:30:21;98642.47;;;-7.00;100.00
31771;BME280;18343;50.152;8.182;2024-01-11T05:33:06;98641.75;;;-7.04;100.00
31771;BME280;18343;50.152;8.182;2024-01-11T05:35:54;98645.41;;;-7.09;100.00
31771;BME280;18343;50.152;8.182;2024-01-11T05:38:40;98647.19;;;-7.10;100.00
31771;BME280;18343;50.152;8.182;2024-01-11T05:41:27;98647.13;;;-7.08;100.00
31771;BME280;18343;50.152;8.182;2024-01-11T05:44:16;98650.69;;;-7.11;100.00
31771;BME280;18343;50.152;8.182;2024-01-11T05:47:05;98657.63;;;-7.10;100.00
31771;BME280;18343;50.152;8.182;2024-01-11T05:49:54;98669.13;;;-7.14;100.00
31771;BME280;18343;50.152;8.182;2024-01-11T05:52:46;98665.88;;;-7.21;100.00
31771;BME280;18343;50.152;8.182;2024-01-11T05:55:31;98667.69;;;-7.23;100.00
31771;BME280;18343;50.152;8.182;2024-01-11T05:58:21;98680.69;;;-7.21;100.00
31771;BME280;18343;50.152;8.182;2024-01-11T06:01:06;98682.56;;;-7.25;100.00
31771;BME280;18343;50.152;8.182;2024-01-11T06:03:54;98677.31;;;-7.25;100.00
31771;BME280;18343;50.152;8.182;2024-01-11T06:06:43;98692.97;;;-7.23;100.00
31771;BME280;18343;50.152;8.182;2024-01-11T06:09:34;98688.63;;;-7.24;100.00
31771;BME280;18343;50.152;8.182;2024-01-11T06:12:19;98700.94;;;-7.28;100.00
31771;BME280;18343;50.152;8.182;2024-01-11T06:15:09;98698.34;;;-7.28;100.00
31771;BME280;18343;50.152;8.182;2024-01-11T06:17:54;98705.31;;;-7.28;100.00
31771;BME280;18343;50.152;8.182;2024-01-11T06:20:39;98703.56;;;-7.28;100.00
31771;BME280;18343;50.152;8.182;2024-01-11T06:23:26;98717.59;;;-7.30;100.00
31771;BME280;18343;50.152;8.182;2024-01-11T06:26:12;98714.00;;;-7.28;100.00
31771;BME280;18343;50.152;8.182;2024-01-11T06:28:59;98715.56;;;-7.22;100.00
31771;BME280;18343;50.152;8.182;2024-01-11T06:31:47;98718.13;;;-7.21;100.00
31771;BME280;18343;50.152;8.182;2024-01-11T06:34:35;98727.72;;;-7.21;100.00
31771;BME280;18343;50.152;8.182;2024-01-11T06:37:21;98730.69;;;-7.32;100.00
31771;BME280;18343;50.152;8.182;2024-01-11T06:40:08;98731.75;;;-7.37;100.00
31771;BME280;18343;50.152;8.182;2024-01-11T06:42:55;98730.31;;;-7.46;100.00
31771;BME280;18343;50.152;8.182;2024-01-11T06:45:42;98725.28;;;-7.52;100.00
31771;BME280;18343;50.152;8.182;2024-01-11T06:48:28;98728.94;;;-7.58;100.00
31771;BME280;18343;50.152;8.182;2024-01-11T06:51:15;98735.97;;;-7.60;100.00
31771;BME280;18343;50.152;8.182;2024-01-11T06:54:03;98731.56;;;-7.58;100.00
31771;BME280;18343;50.152;8.182;2024-01-11T06:56:47;98734.88;;;-7.53;100.00
31771;BME280;18343;50.152;8.182;2024-01-11T06:59:33;98742.56;;;-7.48;100.00
31771;BME280;18343;50.152;8.182;2024-01-11T07:02:22;98743.69;;;-7.57;100.00
31771;BME280;18343;50.152;8.182;2024-01-11T07:05:07;98753.28;;;-7.57;100.00
31771;BME280;18343;50.152;8.182;2024-01-11T07:07:53;98747.97;;;-7.54;100.00
31771;BME280;18343;50.152;8.182;2024-01-11T07:10:40;98741.84;;;-7.53;100.00
31771;BME280;18343;50.152;8.182;2024-01-11T07:13:27;98745.28;;;-7.51;100.00
31771;BME280;18343;50.152;8.182;2024-01-11T07:16:31;98743.56;;;-7.52;100.00
31771;BME280;18343;50.152;8.182;2024-01-11T07:19:15;98747.84;;;-7.49;100.00
31771;BME280;18343;50.152;8.182;2024-01-11T07:22:00;98741.75;;;-7.50;100.00
31771;BME280;18343;50.152;8.182;2024-01-11T07:24:58;98739.16;;;-7.50;100.00
31771;BME280;18343;50.152;8.182;2024-01-11T07:27:44;98750.50;;;-7.51;100.00
31771;BME280;18343;50.152;8.182;2024-01-11T07:30:30;98745.38;;;-7.54;100.00
31771;BME280;18343;50.152;8.182;2024-01-11T07:33:16;98747.03;;;-7.52;100.00
31771;BME280;18343;50.152;8.182;2024-01-11T07:36:03;98743.47;;;-7.49;100.00
31771;BME280;18343;50.152;8.182;2024-01-11T07:38:49;98748.88;;;-7.55;100.00
31771;BME280;18343;50.152;8.182;2024-01-11T07:41:35;98749.94;;;-7.61;100.00
31771;BME280;18343;50.152;8.182;2024-01-11T07:44:27;98753.44;;;-7.62;100.00
31771;BME280;18343;50.152;8.182;2024-01-11T07:47:13;98754.28;;;-7.61;100.00
31771;BME280;18343;50.152;8.182;2024-01-11T07:49:59;98748.13;;;-7.59;100.00
31771;BME280;18343;50.152;8.182;2024-01-11T07:52:46;98745.28;;;-7.51;100.00
31771;BME280;18343;50.152;8.182;2024-01-11T07:55:34;98741.75;;;-7.50;100.00
31771;BME280;18343;50.152;8.182;2024-01-11T07:58:22;98744.38;;;-7.50;100.00
31771;BME280;18343;50.152;8.182;2024-01-11T08:01:09;98760.19;;;-7.55;100.00
31771;BME280;18343;50.152;8.182;2024-01-11T08:03:57;98749.72;;;-7.55;100.00
31771;BME280;18343;50.152;8.182;2024-01-11T08:06:42;98756.81;;;-7.58;100.00
31771;BME280;18343;50.152;8.182;2024-01-11T08:09:27;98755.28;;;-7.65;100.00
31771;BME280;18343;50.152;8.182;2024-01-11T08:12:13;98756.91;;;-7.61;100.00
31771;BME280;18343;50.152;8.182;2024-01-11T08:14:58;98753.19;;;-7.54;100.00
31771;BME280;18343;50.152;8.182;2024-01-11T08:17:54;98745.28;;;-7.51;100.00
31771;BME280;18343;50.152;8.182;2024-01-11T08:20:39;98745.22;;;-7.49;100.00
31771;BME280;18343;50.152;8.182;2024-01-11T08:23:24;98757.38;;;-7.48;100.00
31771;BME280;18343;50.152;8.182;2024-01-11T08:26:11;98753.00;;;-7.48;100.00
31771;BME280;18343;50.152;8.182;2024-01-11T08:29:00;98754.63;;;-7.44;100.00
31771;BME280;18343;50.152;8.182;2024-01-11T08:31:49;98753.72;;;-7.43;100.00
31771;BME280;18343;50.152;8.182;2024-01-11T08:34:35;98742.16;;;-7.36;100.00
31771;BME280;18343;50.152;8.182;2024-01-11T08:37:23;98737.53;;;-7.28;100.00
31771;BME280;18343;50.152;8.182;2024-01-11T08:40:10;98738.13;;;-7.20;100.00
31771;BME280;18343;50.152;8.182;2024-01-11T08:42:56;98744.97;;;-7.15;100.00
31771;BME280;18343;50.152;8.182;2024-01-11T08:45:42;98747.50;;;-7.12;100.00
31771;BME280;18343;50.152;8.182;2024-01-11T08:48:27;98763.75;;;-7.04;100.00
31771;BME280;18343;50.152;8.182;2024-01-11T08:51:20;98759.22;;;-6.99;100.00
31771;BME280;18343;50.152;8.182;2024-01-11T08:54:07;98770.22;;;-6.90;100.00
31771;BME280;18343;50.152;8.182;2024-01-11T08:56:51;98788.38;;;-6.85;100.00
31771;BME280;18343;50.152;8.182;2024-01-11T08:59:38;98793.47;;;-6.82;100.00
31771;BME280;18343;50.152;8.182;2024-01-11T09:02:23;98789.81;;;-6.76;100.00
31771;BME280;18343;50.152;8.182;2024-01-11T09:05:08;98794.94;;;-6.73;100.00
31771;BME280;18343;50.152;8.182;2024-01-11T09:07:58;98792.13;;;-6.67;100.00
31771;BME280;18343;50.152;8.182;2024-01-11T09:10:43;98793.63;;;-6.60;100.00
31771;BME280;18343;50.152;8.182;2024-01-11T09:13:29;98794.19;;;-6.52;100.00
31771;BME280;18343;50.152;8.182;2024-01-11T09:16:24;98788.69;;;-6.44;100.00
31771;BME280;18343;50.152;8.182;2024-01-11T09:19:09;98791.88;;;-6.36;100.00
31771;BME280;18343;50.152;8.182;2024-01-11T09:21:55;98771.69;;;-6.33;100.00
31771;BME280;18343;50.152;8.182;2024-01-11T09:24:48;98771.38;;;-6.25;100.00
31771;BME280;18343;50.152;8.182;2024-01-11T09:27:33;98771.13;;;-6.18;100.00
31771;BME280;18343;50.152;8.182;2024-01-11T09:30:19;98763.84;;;-6.09;100.00
31771;BME280;18343;50.152;8.182;2024-01-11T09:33:06;98768.84;;;-6.03;100.00
31771;BME280;18343;50.152;8.182;2024-01-11T09:35:51;98759.78;;;-5.95;100.00
31771;BME280;18343;50.152;8.182;2024-01-11T09:38:36;98767.25;;;-5.86;100.00
31771;BME280;18343;50.152;8.182;2024-01-11T09:41:34;98768.75;;;-5.78;100.00
31771;BME280;18343;50.152;8.182;2024-01-11T09:44:22;98765.84;;;-5.72;100.00
31771;BME280;18343;50.152;8.182;2024-01-11T09:47:10;98774.22;;;-5.63;100.00
31771;BME280;18343;50.152;8.182;2024-01-11T09:49:57;98786.00;;;-5.51;100.00
31771;BME280;18343;50.152;8.182;2024-01-11T09:52:47;98794.44;;;-5.45;100.00
31771;BME280;18343;50.152;8.182;2024-01-11T09:55:32;98789.81;;;-5.38;100.00
31771;BME280;18343;50.152;8.182;2024-01-11T09:58:22;98786.78;;;-5.27;100.00
31771;BME280;18343;50.152;8.182;2024-01-11T10:01:10;98779.25;;;-5.15;100.00
31771;BME280;18343;50.152;8.182;2024-01-11T10:03:58;98784.94;;;-5.03;100.00
31771;BME280;18343;50.152;8.182;2024-01-11T10:06:46;98791.34;;;-4.90;100.00
31771;BME280;18343;50.152;8.182;2024-01-11T10:09:33;98790.13;;;-4.82;100.00
31771;BME280;18343;50.152;8.182;2024-01-11T10:12:22;98792.44;;;-4.74;100.00
31771;BME280;18343;50.152;8.182;2024-01-11T10:15:10;98791.91;;;-4.62;100.00
31771;BME280;18343;50.152;8.182;2024-01-11T10:17:54;98781.88;;;-4.52;100.00
31771;BME280;18343;50.152;8.182;2024-01-11T10:20:41;98780.50;;;-4.40;100.00
31771;BME280;18343;50.152;8.182;2024-01-11T10:23:29;98762.47;;;-4.29;100.00
31771;BME280;18343;50.152;8.182;2024-01-11T10:26:16;98748.53;;;-4.11;100.00
31771;BME280;18343;50.152;8.182;2024-01-11T10:29:02;98760.03;;;-3.95;100.00
31771;BME280;18343;50.152;8.182;2024-01-11T10:31:48;98748.94;;;-3.83;100.00
31771;BME280;18343;50.152;8.182;2024-01-11T10:34:33;98738.84;;;-3.73;100.00
31771;BME280;18343;50.152;8.182;2024-01-11T10:37:18;98747.03;;;-3.60;100.00
31771;BME280;18343;50.152;8.182;2024-01-11T10:40:08;98742.72;;;-3.44;100.00
31771;BME280;18343;50.152;8.182;2024-01-11T10:42:52;98736.88;;;-3.32;100.00
31771;BME280;18343;50.152;8.182;2024-01-11T10:45:38;98754.69;;;-3.20;100.00
31771;BME280;18343;50.152;8.182;2024-01-11T10:48:33;98739.38;;;-3.12;100.00
31771;BME280;18343;50.152;8.182;2024-01-11T10:51:28;98745.63;;;-2.97;100.00
31771;BME280;18343;50.152;8.182;2024-01-11T10:54:27;98737.91;;;-2.83;100.00
31771;BME280;18343;50.152;8.182;2024-01-11T10:57:15;98726.59;;;-2.67;100.00
31771;BME280;18343;50.152;8.182;2024-01-11T11:00:01;98720.69;;;-2.55;100.00
31771;BME280;18343;50.152;8.182;2024-01-11T11:02:47;98736.69;;;-2.43;100.00
31771;BME280;18343;50.152;8.182;2024-01-11T11:05:36;98737.91;;;-2.32;100.00
31771;BME280;18343;50.152;8.182;2024-01-11T11:08:28;98737.44;;;-2.23;100.00
31771;BME280;18343;50.152;8.182;2024-01-11T11:11:14;98735.84;;;-2.10;100.00
31771;BME280;18343;50.152;8.182;2024-01-11T11:14:03;98726.34;;;-1.97;100.00
31771;BME280;18343;50.152;8.182;2024-01-11T11:16:50;98717.16;;;-1.90;100.00
31771;BME280;18343;50.152;8.182;2024-01-11T11:19:35;98719.28;;;-1.81;100.00
31771;BME280;18343;50.152;8.182;2024-01-11T11:22:22;98724.00;;;-1.70;100.00
31771;BME280;18343;50.152;8.182;2024-01-11T11:25:09;98720.81;;;-1.61;100.00
31771;BME280;18343;50.152;8.182;2024-01-11T11:27:55;98715.97;;;-1.53;100.00
31771;BME280;18343;50.152;8.182;2024-01-11T11:30:43;98718.28;;;-1.47;100.00
31771;BME280;18343;50.152;8.182;2024-01-11T11:33:32;98721.91;;;-1.33;100.00
31771;BME280;18343;50.152;8.182;2024-01-11T11:36:18;98723.00;;;-1.22;100.00
31771;BME280;18343;50.152;8.182;2024-01-11T11:39:15;98714.38;;;-1.10;100.00
31771;BME280;18343;50.152;8.182;2024-01-11T11:42:01;98718.25;;;-1.01;100.00
31771;BME280;18343;50.152;8.182;2024-01-11T11:44:48;98716.88;;;-0.92;100.00
31771;BME280;18343;50.152;8.182;2024-01-11T11:47:35;98704.63;;;-0.93;100.00
31771;BME280;18343;50.152;8.182;2024-01-11T11:50:23;98698.06;;;-1.16;100.00
31771;BME280;18343;50.152;8.182;2024-01-11T11:53:11;98695.53;;;-1.04;100.00
31771;BME280;18343;50.152;8.182;2024-01-11T11:55:58;98694.25;;;-0.96;100.00
31771;BME280;18343;50.152;8.182;2024-01-11T11:58:46;98703.41;;;-0.88;100.00
31771;BME280;18343;50.152;8.182;2024-01-11T12:01:35;98698.59;;;-0.81;100.00
31771;BME280;18343;50.152;8.182;2024-01-11T12:04:26;98698.06;;;-0.72;100.00
31771;BME280;18343;50.152;8.182;2024-01-11T12:07:13;98702.03;;;-0.65;100.00
31771;BME280;18343;50.152;8.182;2024-01-11T12:10:06;98699.56;;;-0.68;100.00
31771;BME280;18343;50.152;8.182;2024-01-11T12:12:55;98694.59;;;-0.58;100.00
31771;BME280;18343;50.152;8.182;2024-01-11T12:15:43;98690.53;;;-0.50;100.00
31771;BME280;18343;50.152;8.182;2024-01-11T12:18:32;98689.50;;;-0.47;100.00
31771;BME280;18343;50.152;8.182;2024-01-11T12:21:23;98681.22;;;-0.41;100.00
31771;BME280;18343;50.152;8.182;2024-01-11T12:24:08;98687.34;;;-0.41;100.00
31771;BME280;18343;50.152;8.182;2024-01-11T12:26:54;98689.72;;;-0.36;100.00
31771;BME280;18343;50.152;8.182;2024-01-11T12:29:42;98690.09;;;-0.28;100.00
31771;BME280;18343;50.152;8.182;2024-01-11T12:32:30;98692.16;;;-0.19;100.00
31771;BME280;18343;50.152;8.182;2024-01-11T12:35:16;98685.44;;;-0.10;100.00
31771;BME280;18343;50.152;8.182;2024-01-11T12:38:04;98688.16;;;0.03;100.00
31771;BME280;18343;50.152;8.182;2024-01-11T12:40:52;98682.50;;;0.09;100.00
31771;BME280;18343;50.152;8.182;2024-01-11T12:43:38;98685.59;;;0.15;100.00
31771;BME280;18343;50.152;8.182;2024-01-11T12:46:26;98695.03;;;0.19;100.00
31771;BME280;18343;50.152;8.182;2024-01-11T12:49:12;98690.31;;;0.24;100.00
31771;BME280;18343;50.152;8.182;2024-01-11T12:51:58;98669.78;;;0.28;100.00
31771;BME280;18343;50.152;8.182;2024-01-11T12:54:46;98677.22;;;0.36;100.00
31771;BME280;18343;50.152;8.182;2024-01-11T12:57:37;98686.47;;;0.43;100.00
31771;BME280;18343;50.152;8.182;2024-01-11T13:00:25;98678.16;;;0.49;100.00
31771;BME280;18343;50.152;8.182;2024-01-11T13:03:15;98680.38;;;0.55;100.00
31771;BME280;18343;50.152;8.182;2024-01-11T13:06:00;98673.19;;;0.57;100.00
31771;BME280;18343;50.152;8.182;2024-01-11T13:08:48;98670.50;;;0.71;100.00
31771;BME280;18343;50.152;8.182;2024-01-11T13:11:33;98663.75;;;0.80;100.00
31771;BME280;18343;50.152;8.182;2024-01-11T13:14:18;98666.91;;;0.85;100.00
31771;BME280;18343;50.152;8.182;2024-01-11T13:17:07;98658.47;;;0.92;100.00
31771;BME280;18343;50.152;8.182;2024-01-11T13:20:02;98659.44;;;0.91;100.00
31771;BME280;18343;50.152;8.182;2024-01-11T13:22:47;98658.38;;;0.81;100.00
31771;BME280;18343;50.152;8.182;2024-01-11T13:25:37;98656.56;;;0.94;100.00
31771;BME280;18343;50.152;8.182;2024-01-11T13:28:23;98651.22;;;1.09;100.00
31771;BME280;18343;50.152;8.182;2024-01-11T13:31:08;98656.41;;;1.23;100.00
31771;BME280;18343;50.152;8.182;2024-01-11T13:33:53;98663.94;;;1.29;100.00
31771;BME280;18343;50.152;8.182;2024-01-11T13:36:40;98667.75;;;1.38;100.00
31771;BME280;18343;50.152;8.182;2024-01-11T13:39:28;98674.53;;;1.42;100.00
31771;BME280;18343;50.152;8.182;2024-01-11T13:42:17;98677.72;;;1.47;100.00
31771;BME280;18343;50.152;8.182;2024-01-11T13:45:05;98672.00;;;1.53;100.00
31771;BME280;18343;50.152;8.182;2024-01-11T13:47:53;98679.44;;;1.60;100.00
31771;BME280;18343;50.152;8.182;2024-01-11T13:50:40;98685.13;;;1.67;100.00
31771;BME280;18343;50.152;8.182;2024-01-11T13:53:29;98687.69;;;1.68;100.00
31771;BME280;18343;50.152;8.182;2024-01-11T13:56:16;98684.28;;;1.66;100.00
31771;BME280;18343;50.152;8.182;2024-01-11T13:59:06;98693.00;;;1.68;100.00
31771;BME280;18343;50.152;8.182;2024-01-11T14:01:58;98689.50;;;1.68;100.00
31771;BME280;18343;50.152;8.182;2024-01-11T14:04:43;98685.56;;;1.74;100.00
31771;BME280;18343;50.152;8.182;2024-01-11T14:07:29;98689.50;;;1.81;100.00
31771;BME280;18343;50.152;8.182;2024-01-11T14:10:17;98684.09;;;1.82;100.00
31771;BME280;18343;50.152;8.182;2024-01-11T14:13:05;98689.06;;;1.87;100.00
31771;BME280;18343;50.152;8.182;2024-01-11T14:15:50;98689.91;;;1.87;100.00
31771;BME280;18343;50.152;8.182;2024-01-11T14:18:38;98690.78;;;1.88;100.00
31771;BME280;18343;50.152;8.182;2024-01-11T14:21:30;98697.66;;;1.78;100.00
31771;BME280;18343;50.152;8.182;2024-01-11T14:24:15;98686.22;;;1.77;100.00
31771;BME280;18343;50.152;8.182;2024-01-11T14:27:07;98678.34;;;1.76;100.00
31771;BME280;18343;50.152;8.182;2024-01-11T14:29:59;98680.38;;;1.59;100.00
31771;BME280;18343;50.152;8.182;2024-01-11T14:32:46;98674.97;;;1.61;100.00
31771;BME280;18343;50.152;8.182;2024-01-11T14:35:34;98664.56;;;1.45;100.00
31771;BME280;18343;50.152;8.182;2024-01-11T14:38:21;98673.16;;;1.49;100.00